createdAt,value
2024-02-02T00:05:14.806Z,-1.07
2024-02-02T00:09:11.129Z,-1.03
2024-02-02T00:13:11.649Z,-0.99
2024-02-02T00:16:36.724Z,-0.95
2024-02-02T00:20:49.032Z,-0.92
2024-02-02T00:24:39.582Z,-0.88
2024-02-02T00:28:37.705Z,-0.84
2024-02-02T00:32:31.052Z,-0.82
2024-02-02T00:36:27.308Z,-0.84
2024-02-02T00:40:17.834Z,-0.87
2024-02-02T00:48:32.770Z,-0.92
2024-02-02T00:52:21.084Z,-0.92
2024-02-02T00:56:14.086Z,-0.94
2024-02-02T01:00:11.661Z,-0.92
2024-02-02T01:04:00.347Z,-0.92
2024-02-02T01:07:58.502Z,-0.95
2024-02-02T01:11:54.227Z,-0.93
2024-02-02T01:16:02.622Z,-0.91
2024-02-02T01:20:17.956Z,-0.89
2024-02-02T01:24:10.903Z,-0.90
2024-02-02T01:28:11.471Z,-0.91
2024-02-02T01:32:07.975Z,-0.99
2024-02-02T01:35:47.755Z,-0.97
2024-02-02T01:39:46.384Z,-1.01
2024-02-02T01:43:40.681Z,-0.92
2024-02-02T01:47:28.495Z,-1.01
2024-02-02T01:56:11.025Z,-1.18
2024-02-02T01:59:52.371Z,-1.19
2024-02-02T02:03:59.502Z,-1.23
2024-02-02T02:07:51.881Z,-1.25
2024-02-02T02:15:31.970Z,-1.26
2024-02-02T02:19:10.445Z,-1.22
2024-02-02T02:22:56.367Z,-1.17
2024-02-02T02:26:47.599Z,-1.11
2024-02-02T02:30:27.061Z,-1.06
2024-02-02T02:34:25.865Z,-1.01
2024-02-02T02:37:39.893Z,-1.02
2024-02-02T02:41:28.809Z,-1.05
2024-02-02T02:44:40.738Z,-1.09
2024-02-02T02:47:55.188Z,-1.12
2024-02-02T02:51:32.514Z,-1.16
2024-02-02T02:55:25.787Z,-1.24
2024-02-02T02:59:09.024Z,-1.17
2024-02-02T03:02:55.953Z,-1.15
2024-02-02T03:06:35.364Z,-1.24
2024-02-02T03:10:36.258Z,-1.17
2024-02-02T03:14:35.001Z,-1.19
2024-02-02T03:18:32.057Z,-1.20
2024-02-02T03:22:27.859Z,-1.24
2024-02-02T03:26:24.149Z,-1.28
2024-02-02T03:30:12.274Z,-1.32
2024-02-02T03:34:19.124Z,-1.32
2024-02-02T03:38:18.548Z,-1.36
2024-02-02T03:42:07.892Z,-1.37
2024-02-02T03:45:56.144Z,-1.38
2024-02-02T03:49:55.611Z,-1.39
2024-02-02T03:53:45.913Z,-1.40
2024-02-02T03:57:35.362Z,-1.55
2024-02-02T04:01:25.934Z,-1.42
2024-02-02T04:05:15.306Z,-1.37
2024-02-02T04:09:05.972Z,-1.34
2024-02-02T04:12:54.608Z,-1.32
2024-02-02T04:16:42.994Z,-1.29
2024-02-02T04:20:31.931Z,-1.24
2024-02-02T04:24:20.470Z,-1.21
2024-02-02T04:28:09.489Z,-1.17
2024-02-02T04:31:58.529Z,-1.13
2024-02-02T04:35:48.543Z,-1.10
2024-02-02T04:39:38.433Z,-1.07
2024-02-02T04:43:26.692Z,-1.07
2024-02-02T04:47:15.044Z,-1.05
2024-02-02T04:50:55.895Z,-1.05
2024-02-02T04:54:34.142Z,-1.06
2024-02-02T04:58:09.431Z,-1.06
2024-02-02T05:01:48.613Z,-1.03
2024-02-02T05:05:36.897Z,-1.00
2024-02-02T05:09:26.244Z,-0.98
2024-02-02T05:13:07.577Z,-1.01
2024-02-02T05:16:44.952Z,-1.08
2024-02-02T05:20:32.580Z,-1.14
2024-02-02T05:24:33.223Z,-1.15
2024-02-02T05:28:05.100Z,-1.13
2024-02-02T05:31:46.298Z,-1.07
2024-02-02T05:35:35.269Z,-1.02
2024-02-02T05:39:17.326Z,-1.01
2024-02-02T05:43:06.836Z,-0.98
2024-02-02T05:46:56.340Z,-0.97
2024-02-02T05:50:45.136Z,-0.92
2024-02-02T05:53:45.263Z,-0.90
2024-02-02T05:57:23.696Z,-0.86
2024-02-02T06:00:48.502Z,-0.83
2024-02-02T06:04:37.175Z,-0.81
2024-02-02T06:08:24.787Z,-0.78
2024-02-02T06:12:05.682Z,-0.74
2024-02-02T06:15:53.871Z,-0.69
2024-02-02T06:19:34.074Z,-0.64
2024-02-02T06:23:14.326Z,-0.58
2024-02-02T06:26:38.361Z,-0.51
2024-02-02T06:30:26.460Z,-0.62
2024-02-02T06:33:58.389Z,-0.35
2024-02-02T06:37:45.134Z,-0.28
2024-02-02T06:41:33.203Z,-0.26
2024-02-02T06:44:49.047Z,-0.25
2024-02-02T06:48:27.652Z,-0.22
2024-02-02T06:51:36.959Z,-0.18
2024-02-02T06:55:14.942Z,-0.15
2024-02-02T06:58:52.872Z,-0.10
2024-02-02T07:02:41.012Z,-0.04
2024-02-02T07:06:40.377Z,-0.02
2024-02-02T07:10:30.682Z,0.02
2024-02-02T07:14:14.589Z,0.02
2024-02-02T07:18:02.892Z,0.07
2024-02-02T07:21:52.757Z,0.09
2024-02-02T07:25:33.628Z,0.09
2024-02-02T07:29:24.589Z,0.11
2024-02-02T07:33:11.711Z,0.13
2024-02-02T07:36:59.056Z,0.12
2024-02-02T07:40:45.190Z,0.13
2024-02-02T07:44:26.854Z,0.20
2024-02-02T07:48:18.112Z,0.30
2024-02-02T07:51:59.900Z,0.41
2024-02-02T07:55:46.712Z,0.50
2024-02-02T07:59:26.047Z,0.54
2024-02-02T08:03:14.433Z,0.49
2024-02-02T08:07:02.806Z,0.51
2024-02-02T08:10:50.855Z,0.52
2024-02-02T08:14:38.378Z,0.51
2024-02-02T08:18:26.172Z,0.45
2024-02-02T08:21:55.102Z,0.43
2024-02-02T08:25:26.937Z,0.39
2024-02-02T08:29:12.963Z,0.36
2024-02-02T08:32:55.748Z,0.31
2024-02-02T08:36:43.074Z,0.28
2024-02-02T08:40:30.270Z,0.31
2024-02-02T08:44:11.839Z,0.31
2024-02-02T08:47:53.731Z,0.28
2024-02-02T08:51:43.644Z,0.29
2024-02-02T08:54:54.966Z,0.27
2024-02-02T08:58:44.112Z,0.26
2024-02-02T09:02:27.070Z,0.37
2024-02-02T09:06:08.824Z,0.43
2024-02-02T09:09:49.635Z,0.53
2024-02-02T09:13:43.971Z,0.66
2024-02-02T09:17:24.933Z,0.72
2024-02-02T09:21:15.375Z,0.76
2024-02-02T09:25:06.753Z,0.75
2024-02-02T09:29:03.039Z,0.75
2024-02-02T09:32:51.255Z,0.73
2024-02-02T09:36:51.659Z,0.71
2024-02-02T09:40:43.814Z,0.66
2024-02-02T09:45:00.474Z,0.64
2024-02-02T09:49:06.937Z,0.67
2024-02-02T09:53:07.678Z,0.71
2024-02-02T09:57:12.928Z,0.73
2024-02-02T10:01:12.913Z,0.73
2024-02-02T10:05:01.235Z,0.77
2024-02-02T10:08:51.543Z,0.81
2024-02-02T10:12:41.048Z,0.92
2024-02-02T10:16:46.717Z,1.05
2024-02-02T10:20:32.082Z,1.15
2024-02-02T10:24:19.959Z,1.22
2024-02-02T10:27:55.621Z,1.21
2024-02-02T10:31:53.945Z,1.15
2024-02-02T10:35:49.398Z,1.13
2024-02-02T10:39:35.659Z,1.04
2024-02-02T10:43:26.523Z,0.93
2024-02-02T10:47:21.117Z,0.83
2024-02-02T10:51:26.380Z,0.76
2024-02-02T10:55:00.690Z,0.82
2024-02-02T10:58:54.798Z,0.83
2024-02-02T11:02:46.170Z,0.88
2024-02-02T11:06:34.526Z,0.92
2024-02-02T11:10:37.683Z,0.93
2024-02-02T11:14:27.156Z,1.01
2024-02-02T11:18:17.827Z,1.12
2024-02-02T11:22:12.429Z,1.20
2024-02-02T11:25:59.029Z,1.23
2024-02-02T11:30:08.837Z,1.27
2024-02-02T11:33:54.485Z,1.27
2024-02-02T11:37:43.116Z,1.27
2024-02-02T11:41:22.136Z,1.25
2024-02-02T11:45:03.472Z,1.28
2024-02-02T11:48:33.226Z,1.33
2024-02-02T11:52:20.342Z,1.35
2024-02-02T11:56:14.320Z,1.31
2024-02-02T12:00:08.291Z,1.31
2024-02-02T12:04:05.209Z,1.33
2024-02-02T12:07:52.223Z,1.40
2024-02-02T12:11:44.442Z,1.51
2024-02-02T12:15:33.600Z,1.62
2024-02-02T12:18:45.952Z,1.70
2024-02-02T12:22:34.818Z,1.76
2024-02-02T12:26:23.099Z,1.86
2024-02-02T12:30:05.486Z,1.97
2024-02-02T12:33:56.857Z,2.05
2024-02-02T12:37:45.028Z,2.00
2024-02-02T12:41:33.112Z,1.95
2024-02-02T12:45:01.440Z,1.93
2024-02-02T12:48:34.743Z,1.91
2024-02-02T12:52:06.789Z,1.89
2024-02-02T12:55:44.709Z,1.92
2024-02-02T12:59:32.845Z,1.98
2024-02-02T13:03:06.973Z,1.99
2024-02-02T13:06:11.402Z,1.86
2024-02-02T13:10:09.463Z,1.79
2024-02-02T13:14:03.668Z,1.70
2024-02-02T13:17:45.838Z,1.60
2024-02-02T13:20:53.799Z,1.48
2024-02-02T13:23:33.418Z,1.39
2024-02-02T13:26:54.030Z,1.33
2024-02-02T13:30:42.451Z,1.31
2024-02-02T13:34:23.215Z,1.32
2024-02-02T13:38:11.374Z,1.19
2024-02-02T13:41:59.661Z,1.25
2024-02-02T13:45:52.394Z,1.22
2024-02-02T13:49:40.664Z,1.25
2024-02-02T13:53:14.362Z,1.24
2024-02-02T13:57:06.549Z,1.28
2024-02-02T14:00:51.247Z,1.34
2024-02-02T14:04:27.004Z,1.28
2024-02-02T14:08:16.007Z,1.28
2024-02-02T14:11:27.206Z,1.21
2024-02-02T14:14:03.195Z,1.23
2024-02-02T14:17:04.146Z,1.23
2024-02-02T14:19:37.097Z,1.22
2024-02-02T14:22:55.181Z,1.21
2024-02-02T14:26:36.467Z,1.17
2024-02-02T14:29:40.661Z,1.19
2024-02-02T14:32:42.919Z,1.19
2024-02-02T14:36:14.017Z,1.20
2024-02-02T14:39:12.663Z,1.17
2024-02-02T14:41:57.594Z,1.17
2024-02-02T14:44:55.115Z,1.15
2024-02-02T14:47:33.338Z,1.14
2024-02-02T14:50:41.584Z,1.14
2024-02-02T14:53:34.739Z,1.14
2024-02-02T14:56:36.002Z,1.12
2024-02-02T14:59:10.112Z,1.15
2024-02-02T15:01:44.331Z,1.18
2024-02-02T15:04:35.527Z,1.20
2024-02-02T15:07:17.016Z,1.19
2024-02-02T15:10:36.177Z,1.17
2024-02-02T15:13:35.054Z,1.22
2024-02-02T15:17:06.648Z,1.22
2024-02-02T15:20:54.926Z,1.23
2024-02-02T15:24:23.894Z,1.22
2024-02-02T15:28:03.262Z,1.16
2024-02-02T15:31:48.706Z,1.14
2024-02-02T15:35:35.523Z,1.04
2024-02-02T15:39:23.884Z,0.93
2024-02-02T15:42:55.750Z,0.89
2024-02-02T15:45:55.343Z,0.81
2024-02-02T15:48:42.826Z,0.77
2024-02-02T15:51:51.759Z,0.73
2024-02-02T15:54:38.585Z,0.71
2024-02-02T15:58:17.173Z,0.71
2024-02-02T16:01:38.490Z,0.67
2024-02-02T16:04:55.278Z,0.61
2024-02-02T16:08:16.337Z,0.57
2024-02-02T16:12:03.090Z,0.51
2024-02-02T16:15:14.507Z,0.46
2024-02-02T16:18:35.507Z,0.42
2024-02-02T16:21:38.797Z,0.41
2024-02-02T16:24:12.558Z,0.39
2024-02-02T16:27:14.871Z,0.38
2024-02-02T16:30:46.371Z,0.38
2024-02-02T16:33:57.597Z,0.35
2024-02-02T16:37:14.981Z,0.31
2024-02-02T16:40:14.225Z,0.30
2024-02-02T16:43:05.295Z,0.30
2024-02-02T16:46:18.561Z,0.31
2024-02-02T16:49:42.776Z,0.32
2024-02-02T16:53:07.512Z,0.35
2024-02-02T16:56:07.238Z,0.35
2024-02-02T16:59:02.451Z,0.34
2024-02-02T17:02:33.027Z,0.35
2024-02-02T17:06:21.509Z,0.35
2024-02-02T17:09:28.869Z,0.34
2024-02-02T17:12:31.484Z,0.33
2024-02-02T17:15:45.032Z,0.29
2024-02-02T17:18:36.812Z,0.21
2024-02-02T17:21:15.620Z,0.15
2024-02-02T17:24:24.350Z,0.10
2024-02-02T17:28:01.196Z,0.06
2024-02-02T17:31:00.085Z,0.02
2024-02-02T17:34:14.629Z,0.00
2024-02-02T17:37:30.261Z,-0.01
2024-02-02T17:40:33.943Z,-0.04
2024-02-02T17:44:04.619Z,-0.06
2024-02-02T17:46:53.707Z,-0.06
2024-02-02T17:50:16.022Z,-0.08
2024-02-02T17:53:21.336Z,-0.14
2024-02-02T17:57:08.310Z,-0.27
2024-02-02T18:00:00.190Z,-0.42
2024-02-02T18:02:53.466Z,-0.51
2024-02-02T18:05:56.441Z,-0.60
2024-02-02T18:08:30.962Z,-0.67
2024-02-02T18:11:17.047Z,-0.70
2024-02-02T18:14:31.986Z,-0.71
2024-02-02T18:17:23.976Z,-0.72
2024-02-02T18:20:11.368Z,-0.74
2024-02-02T18:23:14.734Z,-0.77
2024-02-02T18:26:34.906Z,-0.82
2024-02-02T18:30:24.271Z,-0.92
2024-02-02T18:34:12.481Z,-1.05
2024-02-02T18:37:23.500Z,-1.19
2024-02-02T18:40:34.606Z,-1.29
2024-02-02T18:44:03.611Z,-1.38
2024-02-02T18:47:03.172Z,-1.43
2024-02-02T18:49:56.041Z,-1.52
2024-02-02T18:53:00.991Z,-1.60
2024-02-02T18:56:09.679Z,-1.62
2024-02-02T18:59:07.774Z,-1.63
2024-02-02T19:02:19.104Z,-1.61
2024-02-02T19:05:38.915Z,-1.61
2024-02-02T19:08:30.573Z,-1.63
2024-02-02T19:11:39.861Z,-1.64
2024-02-02T19:14:21.063Z,-1.65
2024-02-02T19:17:20.771Z,-1.68
2024-02-02T19:20:45.124Z,-1.72
2024-02-02T19:23:40.683Z,-1.76
2024-02-02T19:27:13.015Z,-1.80
2024-02-02T19:30:50.411Z,-1.83
2024-02-02T19:33:54.968Z,-1.83
2024-02-02T19:37:00.575Z,-1.84
2024-02-02T19:40:16.648Z,-1.83
2024-02-02T19:43:20.834Z,-1.81
2024-02-02T19:46:58.042Z,-1.80
2024-02-02T19:50:03.421Z,-1.75
2024-02-02T19:53:42.321Z,-1.69
2024-02-02T19:56:46.333Z,-1.65
2024-02-02T19:59:33.110Z,-1.63
2024-02-02T20:02:10.604Z,-1.61
2024-02-02T20:05:10.864Z,-1.58
2024-02-02T20:08:30.981Z,-1.54
2024-02-02T20:12:19.376Z,-1.52
2024-02-02T20:15:39.599Z,-1.41
2024-02-02T20:18:47.454Z,-1.35
2024-02-02T20:22:11.368Z,-1.28
2024-02-02T20:25:53.238Z,-1.19
2024-02-02T20:29:33.854Z,-1.12
2024-02-02T20:33:15.322Z,-1.05
2024-02-02T20:36:10.013Z,-1.02
2024-02-02T20:39:58.235Z,-1.02
2024-02-02T20:43:17.728Z,-1.00
2024-02-02T20:46:35.258Z,-0.96
2024-02-02T20:50:01.376Z,-0.93
2024-02-02T20:53:39.638Z,-0.89
2024-02-02T20:57:23.156Z,-0.80
2024-02-02T21:01:00.098Z,-0.75
2024-02-02T21:04:48.553Z,-0.68
2024-02-02T21:08:36.802Z,-0.61
2024-02-02T21:12:08.072Z,-0.56
2024-02-02T21:15:49.584Z,-0.52
2024-02-02T21:19:37.923Z,-0.46
2024-02-02T21:23:26.042Z,-0.41
2024-02-02T21:27:14.209Z,-0.38
2024-02-02T21:30:42.350Z,-0.37
2024-02-02T21:34:30.672Z,-0.34
2024-02-02T21:38:18.775Z,-0.32
2024-02-02T21:42:00.054Z,-0.30
2024-02-02T21:45:22.078Z,-0.30
2024-02-02T21:49:00.276Z,-0.37
2024-02-02T21:52:37.966Z,-0.41
2024-02-02T21:56:26.183Z,-0.43
2024-02-02T21:59:52.142Z,-0.46
2024-02-02T22:03:16.256Z,-0.46
2024-02-02T22:06:35.972Z,-0.42
2024-02-02T22:09:49.168Z,-0.40
2024-02-02T22:13:37.547Z,-0.34
2024-02-02T22:17:07.130Z,-0.26
2024-02-02T22:20:55.616Z,-0.20
2024-02-02T22:24:09.259Z,-0.15
2024-02-02T22:27:08.385Z,-0.13
2024-02-02T22:30:10.348Z,-0.15
2024-02-02T22:33:07.274Z,-0.11
2024-02-02T22:36:15.593Z,-0.10
2024-02-02T22:39:10.722Z,-0.09
2024-02-02T22:42:41.911Z,-0.06
2024-02-02T22:45:50.418Z,-0.04
2024-02-02T22:49:28.656Z,-0.04
2024-02-02T22:52:59.418Z,-0.05
2024-02-02T22:56:47.848Z,-0.07
2024-02-02T23:00:36.071Z,-0.08
2024-02-02T23:04:07.442Z,-0.06
2024-02-02T23:07:38.971Z,-0.05
2024-02-02T23:10:43.133Z,-0.05
2024-02-02T23:14:22.436Z,-0.04
2024-02-02T23:17:01.499Z,-0.03
2024-02-02T23:19:54.419Z,-0.03
2024-02-02T23:23:35.475Z,-0.04
2024-02-02T23:27:09.264Z,-0.09
2024-02-02T23:30:57.354Z,-0.12
2024-02-02T23:34:45.390Z,-0.26
2024-02-02T23:38:16.483Z,-0.15
2024-02-02T23:41:54.474Z,-0.14
2024-02-02T23:45:34.109Z,-0.13
2024-02-02T23:48:49.816Z,-0.13
2024-02-02T23:52:13.044Z,-0.14
2024-02-02T23:55:07.731Z,-0.13
2024-02-02T23:57:57.726Z,-0.12
